Terminal Aerodrome Forecast
Issued by NWS

Home | Current Version | Previous Version | Text Only | Print | Product List | Glossary On
Versions: 1 2 3 4 5 6 7 8 9 10 11 12 13
319
FTUS43 KDLH 270539
TAFHIB
TAF
KHIB 270539Z 2706/2806 00000KT P6SM SCT090 BKN120
     FM271000 00000KT 3SM BR SCT006 BKN100
      TEMPO 2710/2714 2SM BR BKN006
     FM271500 01005KT P6SM SCT010 BKN100
     FM272100 03004KT P6SM SCT100=

USA.gov is the U.S. government's official web portal to all federal, state and local government web resources and services.